Time;durP1;ratioP1;P1;durP2;ratioP2;P2;SDS_P1;SDS_P2;PMS_P1;PMS_P2;Temp;Humidity;BMP_temperature;BMP_pressure;BME280_temperature;BME280_humidity;BME280_pressure;Samples;Min_cycle;Max_cycle;Signal;HPM_P1;HPM_P2
2024/04/04 00:01:30;;;;;;;4.43;1.88;;;;;;;14.02;100.00;100778.97;5029089;28;20087;-70
2024/04/04 00:03:56;;;;;;;4.32;1.80;;;;;;;13.48;100.00;100750.69;5029198;28;20025;-70
2024/04/04 00:06:23;;;;;;;4.07;1.58;;;;;;;13.38;100.00;100755.22;5029564;28;20055;-70
2024/04/04 00:08:48;;;;;;;5.10;1.75;;;;;;;13.60;100.00;100738.44;5029774;28;20064;-70
2024/04/04 00:11:14;;;;;;;5.18;1.88;;;;;;;13.40;100.00;100707.50;5029107;28;20065;-69
2024/04/04 00:13:39;;;;;;;3.30;1.73;;;;;;;13.53;100.00;100688.38;5011776;28;20029;-70
2024/04/04 00:16:05;;;;;;;4.72;1.80;;;;;;;13.67;100.00;100705.84;5011738;28;20542;-70
2024/04/04 00:18:31;;;;;;;3.90;2.00;;;;;;;13.62;100.00;100657.47;5027843;28;20047;-69
2024/04/04 00:20:57;;;;;;;4.15;2.30;;;;;;;13.03;100.00;100699.13;5029220;28;20029;-70
2024/04/04 00:23:23;;;;;;;6.50;2.08;;;;;;;12.96;100.00;100590.41;5010888;28;20029;-70
2024/04/04 00:25:48;;;;;;;4.45;2.15;;;;;;;12.77;100.00;100545.84;5011643;28;20053;-70
2024/04/04 00:28:14;;;;;;;5.63;2.50;;;;;;;12.83;100.00;100555.91;5028413;28;20041;-70
2024/04/04 00:30:39;;;;;;;7.38;2.60;;;;;;;12.70;100.00;100500.97;5028799;28;20053;-70
2024/04/04 00:33:05;;;;;;;6.55;2.58;;;;;;;13.18;100.00;100540.44;5028496;28;20443;-70
2024/04/04 00:35:30;;;;;;;5.50;2.28;;;;;;;13.03;100.00;100487.25;5011499;28;20422;-70
2024/04/04 00:37:56;;;;;;;6.13;1.92;;;;;;;12.95;100.00;100473.88;5028211;28;20035;-70
2024/04/04 00:40:23;;;;;;;6.63;2.08;;;;;;;12.80;100.00;100551.72;5029202;28;20120;-70
2024/04/04 00:42:50;;;;;;;5.47;2.28;;;;;;;12.97;100.00;100493.34;5029440;28;20037;-70
2024/04/04 00:45:15;;;;;;;5.50;2.13;;;;;;;13.16;100.00;100590.69;5010866;28;20030;-69
2024/04/04 00:47:44;;;;;;;3.97;2.05;;;;;;;12.88;100.00;100557.44;5028594;28;20444;-70
2024/04/04 00:50:11;;;;;;;5.97;2.13;;;;;;;12.92;100.00;100532.66;5028411;28;20029;-71
2024/04/04 00:52:37;;;;;;;4.18;2.05;;;;;;;13.17;100.00;100632.41;5010236;28;20135;-71
2024/04/04 00:55:04;;;;;;;5.47;2.35;;;;;;;13.40;100.00;100630.03;5028526;28;20116;-70
2024/04/04 00:57:30;;;;;;;5.47;2.60;;;;;;;13.38;100.00;100612.19;5027968;28;20076;-70
2024/04/04 00:59:56;;;;;;;4.68;2.60;;;;;;;13.09;100.00;100470.94;5027972;28;20403;-70
2024/04/04 01:02:22;;;;;;;8.30;2.67;;;;;;;13.44;100.00;100493.69;5027846;28;20048;-72
2024/04/04 01:04:47;;;;;;;6.25;2.63;;;;;;;13.73;100.00;100585.56;5028561;28;20029;-70
2024/04/04 01:07:14;;;;;;;7.10;2.65;;;;;;;13.88;100.00;100546.75;5028084;28;20036;-72
2024/04/04 01:09:39;;;;;;;7.38;2.65;;;;;;;13.42;100.00;100463.09;5028103;28;20514;-71
2024/04/04 01:12:05;;;;;;;4.60;2.95;;;;;;;14.19;100.00;100579.81;5028175;28;20029;-72
2024/04/04 01:14:30;;;;;;;5.80;3.03;;;;;;;13.96;100.00;100600.19;5027700;28;20052;-71
2024/04/04 01:16:56;;;;;;;11.02;3.17;;;;;;;13.74;100.00;100496.09;5027967;28;20022;-69
2024/04/04 01:19:21;;;;;;;9.80;2.92;;;;;;;14.35;100.00;100565.66;5028118;28;20030;-69
2024/04/04 01:21:47;;;;;;;7.93;3.10;;;;;;;13.49;100.00;100542.91;5027739;28;20029;-69
2024/04/04 01:24:12;;;;;;;5.65;2.80;;;;;;;14.05;100.00;100566.66;5010724;28;20036;-71
2024/04/04 01:26:38;;;;;;;9.07;3.22;;;;;;;13.07;100.00;100534.81;5028695;28;20029;-70
2024/04/04 01:29:03;;;;;;;10.00;2.80;;;;;;;13.91;100.00;100583.28;5027913;28;20511;-70
2024/04/04 01:31:30;;;;;;;5.00;2.80;;;;;;;14.04;100.00;100600.78;5010264;28;20029;-73
2024/04/04 01:33:55;;;;;;;5.43;3.20;;;;;;;13.96;100.00;100569.53;5010278;28;20034;-71
2024/04/04 01:36:21;;;;;;;7.03;3.42;;;;;;;14.06;100.00;100566.63;5027612;28;20025;-70
2024/04/04 01:38:47;;;;;;;4.72;3.30;;;;;;;14.06;100.00;100586.25;5010164;28;20025;-70
2024/04/04 01:41:12;;;;;;;7.57;2.92;;;;;;;13.48;100.00;100462.03;5010292;28;20116;-70
2024/04/04 01:43:38;;;;;;;11.95;3.42;;;;;;;13.83;100.00;100561.41;5009959;28;20033;-70
2024/04/04 01:46:03;;;;;;;7.75;2.97;;;;;;;13.86;100.00;100500.78;5027152;28;20040;-71
2024/04/04 01:48:29;;;;;;;4.22;2.53;;;;;;;14.14;100.00;100551.03;5027179;28;20389;-70
2024/04/04 01:50:54;;;;;;;5.70;2.47;;;;;;;14.41;100.00;100545.84;5009066;28;20134;-70
2024/04/04 01:53:19;;;;;;;4.05;2.13;;;;;;;14.27;100.00;100539.47;5009562;28;20467;-72
2024/04/04 01:55:45;;;;;;;6.10;2.30;;;;;;;13.98;100.00;100542.19;5027187;28;20040;-74
2024/04/04 01:58:10;;;;;;;4.35;2.20;;;;;;;13.77;100.00;100488.31;5027857;28;20057;-70
2024/04/04 02:00:36;;;;;;;6.18;2.10;;;;;;;13.76;100.00;100438.09;5027124;28;20064;-70
2024/04/04 02:03:02;;;;;;;8.40;2.17;;;;;;;14.30;100.00;100518.97;5025726;28;20112;-69
2024/04/04 02:05:27;;;;;;;6.13;2.10;;;;;;;14.39;100.00;100537.38;5027036;28;20026;-69
2024/04/04 02:07:53;;;;;;;6.57;2.33;;;;;;;14.23;100.00;100553.25;5028026;28;20053;-69
2024/04/04 02:10:18;;;;;;;5.38;2.30;;;;;;;13.97;100.00;100509.81;5010185;28;20425;-69
2024/04/04 02:12:44;;;;;;;5.28;2.50;;;;;;;13.96;100.00;100526.06;5027547;28;20083;-71
2024/04/04 02:15:10;;;;;;;4.55;2.10;;;;;;;13.91;100.00;100534.72;5027716;28;20491;-71
2024/04/04 02:17:36;;;;;;;9.93;2.20;;;;;;;13.63;100.00;100406.16;5027818;28;20029;-69
2024/04/04 02:20:02;;;;;;;5.60;2.25;;;;;;;13.76;100.00;100452.59;5026729;28;20060;-70
2024/04/04 02:22:27;;;;;;;5.25;2.10;;;;;;;14.28;100.00;100515.63;5009412;28;20022;-70
2024/04/04 02:24:53;;;;;;;6.55;2.15;;;;;;;14.18;100.00;100520.16;5027046;28;20029;-70
2024/04/04 02:27:19;;;;;;;8.10;2.33;;;;;;;14.37;100.00;100521.25;5027386;28;20504;-70
2024/04/04 02:29:44;;;;;;;5.10;2.40;;;;;;;14.31;100.00;100506.13;5009175;28;20026;-71
2024/04/04 02:32:10;;;;;;;5.47;2.10;;;;;;;14.59;100.00;100514.50;5026941;28;20395;-70
2024/04/04 02:34:35;;;;;;;6.25;2.70;;;;;;;14.27;100.00;100521.59;5008800;28;20108;-71
2024/04/04 02:37:01;;;;;;;7.47;2.42;;;;;;;13.31;100.00;100373.19;5026658;28;20068;-73
2024/04/04 02:39:28;;;;;;;7.43;2.65;;;;;;;14.01;100.00;100432.97;5027573;28;20040;-70
2024/04/04 02:41:54;;;;;;;8.95;2.72;;;;;;;13.52;100.00;100436.34;5027233;28;20029;-70
2024/04/04 02:44:19;;;;;;;5.18;2.83;;;;;;;13.47;100.00;100437.41;5008969;28;20125;-71
2024/04/04 02:46:46;;;;;;;6.15;3.03;;;;;;;13.58;100.00;100386.78;5027306;28;20036;-74
2024/04/04 02:49:11;;;;;;;5.57;2.63;;;;;;;14.61;100.00;100478.59;5026797;28;20025;-69
2024/04/04 02:51:37;;;;;;;4.38;2.55;;;;;;;13.87;100.00;100548.47;5006782;28;20407;-69
2024/04/04 02:54:02;;;;;;;6.95;2.72;;;;;;;12.85;100.00;100380.63;5008184;28;20034;-70
2024/04/04 02:56:28;;;;;;;5.22;2.28;;;;;;;13.57;100.00;100426.81;5007122;28;20108;-71
2024/04/04 02:58:53;;;;;;;6.57;2.50;;;;;;;13.64;100.00;100410.41;5025705;28;20036;-70
2024/04/04 03:01:18;;;;;;;4.03;1.90;;;;;;;13.76;100.00;100512.22;5006851;28;20022;-71
2024/04/04 03:03:44;;;;;;;4.25;2.17;;;;;;;13.85;100.00;100511.06;5026041;28;20061;-71
2024/04/04 03:06:11;;;;;;;7.57;2.40;;;;;;;13.77;100.00;100485.75;5026690;28;20258;-69
2024/04/04 03:08:37;;;;;;;4.38;2.20;;;;;;;12.80;100.00;100372.25;5026703;28;20415;-70
2024/04/04 03:11:03;;;;;;;5.28;2.35;;;;;;;14.01;100.00;100488.38;5026541;28;20049;-69
2024/04/04 03:13:29;;;;;;;6.00;2.60;;;;;;;13.87;100.00;100496.50;5025383;28;20125;-71
2024/04/04 03:15:56;;;;;;;5.95;2.03;;;;;;;13.83;100.00;100506.00;5028321;28;20470;-71
2024/04/04 03:18:22;;;;;;;5.05;1.90;;;;;;;13.66;100.00;100395.88;5011615;28;20368;-71
2024/04/04 03:20:47;;;;;;;5.75;2.33;;;;;;;13.74;100.00;100419.44;5028098;28;20038;-70
2024/04/04 03:23:13;;;;;;;6.70;2.08;;;;;;;14.40;100.00;100530.56;5012512;28;20033;-69
2024/04/04 03:25:38;;;;;;;7.15;2.10;;;;;;;13.91;100.00;100562.84;5030102;28;20507;-71
2024/04/04 03:28:04;;;;;;;5.32;1.77;;;;;;;14.06;100.00;100558.97;5029959;28;20037;-71
2024/04/04 03:30:29;;;;;;;3.38;1.85;;;;;;;13.84;100.00;100569.00;5028225;28;20034;-71
2024/04/04 03:32:55;;;;;;;5.38;1.80;;;;;;;13.72;100.00;100485.09;5010406;28;20038;-71
2024/04/04 03:35:20;;;;;;;4.22;1.80;;;;;;;13.86;100.00;100567.25;5028005;28;20033;-71
2024/04/04 03:37:45;;;;;;;4.40;1.80;;;;;;;14.35;100.00;100566.50;5028509;28;20091;-69
2024/04/04 03:40:11;;;;;;;4.40;1.90;;;;;;;13.87;100.00;100473.50;5027755;28;20045;-71
2024/04/04 03:42:36;;;;;;;4.45;1.83;;;;;;;13.96;100.00;100539.69;5027016;28;20438;-70
2024/04/04 03:45:02;;;;;;;5.13;1.98;;;;;;;14.04;100.00;100552.22;5027739;28;20037;-69
2024/04/04 03:47:28;;;;;;;5.53;2.00;;;;;;;13.64;100.00;100584.16;5027885;28;20028;-71
2024/04/04 03:49:53;;;;;;;4.93;1.98;;;;;;;13.33;100.00;100493.19;5027193;28;20078;-70
2024/04/04 03:52:20;;;;;;;5.88;1.83;;;;;;;14.03;100.00;100530.91;5014144;28;20483;-70
2024/04/04 03:54:45;;;;;;;6.85;2.45;;;;;;;13.66;100.00;100461.44;5027704;28;20037;-70
2024/04/04 03:57:12;;;;;;;6.70;3.10;;;;;;;13.99;100.00;100557.47;5027369;28;20129;-69
2024/04/04 03:59:38;;;;;;;62.63;50.33;;;;;;;13.55;100.00;100479.69;5027677;28;20470;-71
2024/04/04 04:02:03;;;;;;;94.30;78.88;;;;;;;12.90;100.00;100383.84;5028295;28;20113;-70
2024/04/04 04:04:29;;;;;;;109.32;95.25;;;;;;;12.79;100.00;100347.63;5011799;28;20112;-69
2024/04/04 04:06:54;;;;;;;19.85;14.68;;;;;;;13.06;100.00;100533.13;5011239;28;20412;-72
2024/04/04 04:09:20;;;;;;;8.63;6.10;;;;;;;12.81;100.00;100458.16;5024744;28;20131;-69
2024/04/04 04:11:45;;;;;;;11.05;5.20;;;;;;;13.09;100.00;100358.63;5026593;28;20052;-70
2024/04/04 04:14:11;;;;;;;7.82;4.60;;;;;;;13.61;100.00;100450.53;5025565;28;20116;-73
2024/04/04 04:16:36;;;;;;;6.00;3.40;;;;;;;12.87;100.00;100381.41;5011628;28;20037;-69
2024/04/04 04:19:02;;;;;;;7.22;4.57;;;;;;;12.88;100.00;100488.53;5015550;28;20021;-70
2024/04/04 04:21:27;;;;;;;9.52;3.92;;;;;;;12.96;100.00;100447.47;5027805;28;20085;-69
2024/04/04 04:23:56;;;;;;;4.97;2.90;;;;;;;12.46;100.00;100335.91;5011420;28;20091;-69
2024/04/04 04:26:21;;;;;;;6.43;2.70;;;;;;;12.42;100.00;100329.25;5025673;28;20423;-68
2024/04/04 04:28:47;;;;;;;10.30;3.17;;;;;;;13.38;100.00;100422.34;5013615;28;20029;-69
2024/04/04 04:31:24;;;;;;;10.05;3.25;;;;;;;12.89;100.00;100323.50;5011671;28;20480;-69
2024/04/04 04:33:49;;;;;;;10.48;3.67;;;;;;;12.39;100.00;100237.53;5025994;28;20033;-69
2024/04/04 04:36:15;;;;;;;8.10;3.05;;;;;;;13.47;100.00;100437.41;5026778;28;20042;-71
2024/04/04 04:38:40;;;;;;;6.05;3.15;;;;;;;13.46;100.00;100356.53;5026745;28;20041;-68
2024/04/04 04:41:06;;;;;;;8.35;3.40;;;;;;;13.96;100.00;100411.03;5026589;28;20515;-71
2024/04/04 04:43:31;;;;;;;7.82;3.10;;;;;;;14.00;100.00;100410.03;5027849;28;20042;-71
2024/04/04 04:45:57;;;;;;;8.43;2.65;;;;;;;13.18;100.00;100399.16;5027134;28;20056;-70
2024/04/04 04:48:22;;;;;;;6.93;2.72;;;;;;;13.75;100.00;100436.44;5010877;28;20454;-70
2024/04/04 04:50:47;;;;;;;9.02;2.90;;;;;;;14.14;100.00;100425.72;5025702;28;20053;-70
2024/04/04 04:53:13;;;;;;;6.85;3.15;;;;;;;14.06;100.00;100453.28;5025814;28;20136;-72
2024/04/04 04:55:38;;;;;;;6.35;3.17;;;;;;;13.78;100.00;100387.78;5009981;28;20498;-71
2024/04/04 04:58:04;;;;;;;8.57;3.88;;;;;;;14.26;100.00;100497.72;5027959;28;20047;-70
2024/04/04 05:00:30;;;;;;;8.80;3.60;;;;;;;14.16;100.00;100481.06;5026592;28;20025;-70
2024/04/04 05:02:56;;;;;;;6.70;3.05;;;;;;;14.44;100.00;100465.59;5011757;28;20029;-71
2024/04/04 05:05:21;;;;;;;7.65;3.80;;;;;;;14.08;100.00;100475.38;5027711;28;20032;-70
2024/04/04 05:07:47;;;;;;;10.20;3.60;;;;;;;13.65;100.00;100432.50;5028126;28;20033;-70
2024/04/04 05:10:12;;;;;;;5.43;3.38;;;;;;;14.47;100.00;100456.09;5025920;28;20029;-70
2024/04/04 05:12:38;;;;;;;5.63;2.60;;;;;;;14.33;100.00;100478.75;5010062;28;20036;-71
2024/04/04 05:15:05;;;;;;;4.22;2.20;;;;;;;13.88;100.00;100411.28;5025962;28;20116;-70
2024/04/04 05:17:31;;;;;;;7.68;2.60;;;;;;;14.22;100.00;100483.38;5025918;28;20037;-70
2024/04/04 05:19:56;;;;;;;5.25;2.25;;;;;;;14.15;100.00;100379.63;5027769;28;20033;-70
2024/04/04 05:22:22;;;;;;;6.63;2.28;;;;;;;14.13;100.00;100404.44;5027116;28;20044;-72
2024/04/04 05:24:47;;;;;;;5.88;2.13;;;;;;;14.70;100.00;100468.03;5007337;28;20432;-68
2024/04/04 05:27:13;;;;;;;5.88;2.20;;;;;;;14.45;100.00;100524.38;5026926;28;20080;-69
2024/04/04 05:29:39;;;;;;;4.95;1.90;;;;;;;14.82;100.00;100479.53;5025564;28;20113;-72
2024/04/04 05:32:05;;;;;;;7.22;2.22;;;;;;;14.74;100.00;100508.81;5026099;28;20052;-72
2024/04/04 05:34:30;;;;;;;5.60;2.17;;;;;;;14.72;100.00;100520.84;5027970;28;20412;-70
2024/04/04 05:36:56;;;;;;;4.78;2.17;;;;;;;14.70;100.00;100509.81;5026792;28;20060;-70
2024/04/04 05:39:21;;;;;;;6.45;2.15;;;;;;;15.09;100.00;100483.63;5026958;28;20037;-71
2024/04/04 05:41:51;;;;;;;3.97;2.00;;;;;;;15.58;100.00;100486.81;5025353;28;20044;-72
2024/04/04 05:44:17;;;;;;;8.02;2.30;;;;;;;15.95;100.00;100496.38;5026021;28;20075;-71
2024/04/04 05:46:43;;;;;;;8.77;2.60;;;;;;;15.35;100.00;100442.47;5024948;28;20033;-72
2024/04/04 05:49:08;;;;;;;3.92;2.10;;;;;;;16.19;100.00;100515.03;5012674;28;20038;-70
2024/04/04 05:51:33;;;;;;;10.52;1.98;;;;;;;16.38;100.00;100559.56;5011981;28;20040;-70
2024/04/04 05:53:59;;;;;;;6.60;2.33;;;;;;;17.18;100.00;100523.44;5026242;28;20087;-71
2024/04/04 05:56:25;;;;;;;9.23;2.13;;;;;;;17.35;100.00;100548.38;5025864;28;20029;-71
2024/04/04 05:58:50;;;;;;;7.43;2.60;;;;;;;16.98;100.00;100471.28;5011246;28;20034;-71
2024/04/04 06:01:16;;;;;;;9.27;3.05;;;;;;;17.93;100.00;100451.22;5026951;28;20116;-71
2024/04/04 06:03:42;;;;;;;6.55;1.98;;;;;;;17.42;100.00;100597.75;5009127;28;20258;-70
2024/04/04 06:06:09;;;;;;;7.40;1.88;;;;;;;17.59;100.00;100490.66;5023349;28;20114;-70
2024/04/04 06:08:34;;;;;;;19.23;7.45;;;;;;;16.91;100.00;100451.94;5024603;28;20048;-69
2024/04/04 06:10:59;;;;;;;10.63;3.63;;;;;;;18.61;100.00;100489.75;5026170;28;20032;-69
2024/04/04 06:13:25;;;;;;;7.03;2.00;;;;;;;17.92;100.00;100468.44;5026567;28;20037;-69
2024/04/04 06:15:54;;;;;;;7.00;2.50;;;;;;;18.26;100.00;100567.97;5025803;28;20036;-68
2024/04/04 06:18:20;;;;;;;7.28;2.40;;;;;;;17.42;100.00;100533.47;5024492;28;20052;-69
2024/04/04 06:20:46;;;;;;;6.40;2.90;;;;;;;17.17;100.00;100562.88;5025470;28;20037;-72
2024/04/04 06:23:12;;;;;;;8.40;3.05;;;;;;;17.56;100.00;100595.41;5026514;28;20044;-69
2024/04/04 06:25:37;;;;;;;5.15;2.80;;;;;;;17.23;100.00;100511.19;5026534;28;20033;-69
2024/04/04 06:28:03;;;;;;;6.45;2.05;;;;;;;17.47;100.00;100529.78;5008178;28;20033;-69
2024/04/04 06:30:28;;;;;;;8.15;3.15;;;;;;;18.06;100.00;100566.34;5025643;28;20461;-69
2024/04/04 06:32:54;;;;;;;4.85;2.45;;;;;;;18.23;100.00;100564.69;5026109;28;20025;-69
2024/04/04 06:35:19;;;;;;;6.15;2.55;;;;;;;18.64;100.00;100573.78;5008538;28;20484;-69
2024/04/04 06:37:47;;;;;;;7.70;2.47;;;;;;;18.27;100.00;100551.59;5025863;28;20025;-69
2024/04/04 06:40:15;;;;;;;4.68;2.05;;;;;;;18.05;100.00;100612.75;5025156;28;20026;-68
2024/04/04 06:42:41;;;;;;;3.38;1.60;;;;;;;18.50;100.00;100628.53;5008299;28;20037;-70
2024/04/04 06:45:07;;;;;;;4.32;1.73;;;;;;;18.42;100.00;100440.06;5026305;28;20116;-69
2024/04/04 06:47:32;;;;;;;5.18;2.00;;;;;;;19.46;100.00;100537.53;5008918;28;21447;-70
2024/04/04 06:49:58;;;;;;;4.93;1.70;;;;;;;19.97;100.00;100512.25;5030362;28;20403;-68
2024/04/04 06:52:23;;;;;;;7.43;1.70;;;;;;;19.51;100.00;100597.41;5029916;28;20029;-68
2024/04/04 06:54:49;;;;;;;4.57;1.88;;;;;;;19.83;100.00;100564.66;5030622;28;20021;-69
2024/04/04 06:57:14;;;;;;;3.97;1.27;;;;;;;19.32;100.00;100467.78;5030199;28;20141;-68
2024/04/04 06:59:40;;;;;;;9.70;2.03;;;;;;;20.07;100.00;100555.53;5012284;28;20030;-68
2024/04/04 07:02:06;;;;;;;6.45;2.30;;;;;;;20.22;100.00;100579.66;5030207;28;21477;-69
2024/04/04 07:04:31;;;;;;;6.72;2.20;;;;;;;20.75;100.00;100543.72;5012157;28;20443;-68
2024/04/04 07:06:56;;;;;;;4.80;1.95;;;;;;;19.66;100.00;100632.72;5029463;28;20037;-69
2024/04/04 07:09:22;;;;;;;6.05;1.92;;;;;;;20.84;100.00;100475.13;5029395;28;20045;-70
2024/04/04 07:11:48;;;;;;;3.28;2.15;;;;;;;20.12;100.00;100481.22;5029090;28;20484;-70
2024/04/04 07:14:14;;;;;;;5.40;1.77;;;;;;;21.08;100.00;100437.41;5027684;28;20038;-71
2024/04/04 07:16:39;;;;;;;4.20;1.65;;;;;;;20.55;100.00;100606.94;5010088;28;20411;-71
2024/04/04 07:19:04;;;;;;;2.55;1.70;;;;;;;21.19;100.00;100536.69;5026936;28;20116;-70
2024/04/04 07:21:30;;;;;;;2.88;1.58;;;;;;;20.40;100.00;100576.81;5027524;28;20255;-70
2024/04/04 07:23:56;;;;;;;4.60;1.85;;;;;;;20.14;100.00;100507.78;5011581;28;20061;-68
2024/04/04 07:26:21;;;;;;;3.40;2.05;;;;;;;21.37;100.00;100490.72;5027647;28;20057;-68
2024/04/04 07:28:47;;;;;;;5.57;1.92;;;;;;;21.27;100.00;100500.78;5010496;28;20084;-68
2024/04/04 07:31:12;;;;;;;3.47;1.90;;;;;;;20.98;100.00;100408.69;5028672;28;20160;-68
2024/04/04 07:33:38;;;;;;;5.57;1.67;;;;;;;22.25;100.00;100441.63;5011482;28;20036;-68
2024/04/04 07:36:04;;;;;;;7.22;2.33;;;;;;;20.73;100.00;100577.44;5011053;28;20124;-69
2024/04/04 07:38:29;;;;;;;5.78;2.00;;;;;;;21.67;100.00;100451.66;5027734;28;20025;-69
2024/04/04 07:40:55;;;;;;;4.65;1.95;;;;;;;20.83;100.00;100489.81;5028380;28;20033;-69
2024/04/04 07:43:20;;;;;;;5.28;2.05;;;;;;;22.07;100.00;100486.91;5028974;28;20133;-69
2024/04/04 07:45:46;;;;;;;7.40;1.88;;;;;;;21.92;100.00;100509.50;5028880;28;20033;-69
2024/04/04 07:48:15;;;;;;;4.82;1.92;;;;;;;21.91;100.00;100492.28;5027653;28;20017;-69
2024/04/04 07:50:41;;;;;;;4.68;2.30;;;;;;;22.23;100.00;100384.75;5029240;28;20045;-68
2024/04/04 07:53:08;;;;;;;10.50;4.32;;;;;;;22.90;100.00;100488.91;5010187;28;20033;-70
2024/04/04 07:55:35;;;;;;;5.75;2.00;;;;;;;23.62;100.00;100436.91;5010396;28;20049;-69
2024/04/04 07:58:00;;;;;;;6.88;1.92;;;;;;;22.98;100.00;100468.47;5027862;28;20037;-69
2024/04/04 08:00:26;;;;;;;5.10;1.92;;;;;;;21.92;100.00;100442.19;5028859;28;20026;-69
2024/04/04 08:02:51;;;;;;;7.28;1.90;;;;;;;23.08;100.00;100457.31;5029027;28;20037;-69
2024/04/04 08:05:18;;;;;;;3.70;2.00;;;;;;;23.01;100.00;100478.63;5028761;28;20045;-69
2024/04/04 08:07:43;;;;;;;5.35;1.85;;;;;;;23.18;100.00;100410.78;5027810;28;21089;-70
2024/04/04 08:10:11;;;;;;;4.78;1.90;;;;;;;22.98;100.00;100403.59;5011325;28;20125;-70
2024/04/04 08:12:37;;;;;;;4.68;1.65;;;;;;;22.39;100.00;100459.66;5010960;28;20033;-69
2024/04/04 08:15:12;;;;;;;4.15;1.77;;;;;;;22.58;100.00;100428.16;5028363;28;20033;-70
2024/04/04 08:17:40;;;;;;;4.10;2.22;;;;;;;23.66;100.00;100458.28;5010708;28;20040;-70
2024/04/04 08:20:14;;;;;;;6.30;3.33;;;;;;;23.67;100.00;100459.97;5028490;28;20026;-70
2024/04/04 08:22:43;;;;;;;8.57;2.00;;;;;;;23.79;100.00;100334.38;5028022;28;20045;-70
2024/04/04 08:25:10;;;;;;;7.63;1.95;;;;;;;22.39;100.00;100486.41;5009867;28;20120;-73
2024/04/04 08:27:35;;;;;;;4.25;1.73;;;;;;;23.25;100.00;100428.38;5010446;28;20025;-69
2024/04/04 08:30:01;;;;;;;4.43;1.80;;;;;;;24.52;100.00;100408.28;5028843;28;20063;-69
2024/04/04 08:32:26;;;;;;;6.07;2.10;;;;;;;24.39;100.00;100402.38;5010009;28;20026;-69
2024/04/04 08:34:52;;;;;;;4.38;1.95;;;;;;;24.37;100.00;100426.84;5028217;28;20033;-70
2024/04/04 08:37:17;;;;;;;5.75;2.00;;;;;;;24.31;100.00;100435.97;5027894;28;20411;-72
2024/04/04 08:39:43;;;;;;;7.10;1.80;;;;;;;24.21;100.00;100435.00;5026967;28;20060;-70
2024/04/04 08:42:09;;;;;;;4.38;1.50;;;;;;;23.92;100.00;100455.41;5027865;28;20040;-70
2024/04/04 08:44:34;;;;;;;5.88;1.50;;;;;;;24.30;100.00;100443.88;5027720;28;20033;-70
2024/04/04 08:47:00;;;;;;;2.83;1.45;;;;;;;24.25;100.00;100430.41;5028220;28;20040;-69
2024/04/04 08:49:27;;;;;;;8.40;2.20;;;;;;;24.53;100.00;100419.50;5027717;28;20103;-69
2024/04/04 08:51:56;;;;;;;5.53;1.90;;;;;;;22.88;100.00;100327.38;5026916;28;20037;-69
2024/04/04 08:54:24;;;;;;;3.78;1.55;;;;;;;23.19;100.00;100514.44;5027289;28;20033;-69
2024/04/04 08:56:50;;;;;;;4.45;1.50;;;;;;;23.68;100.00;100355.13;5010266;28;20042;-69
2024/04/04 08:59:16;;;;;;;4.53;1.67;;;;;;;23.42;100.00;100372.66;5027068;28;20403;-69
2024/04/04 09:01:42;;;;;;;5.95;1.83;;;;;;;24.26;100.00;100400.88;5009394;28;20029;-73
2024/04/04 09:04:07;;;;;;;10.02;1.73;;;;;;;25.15;100.00;100344.25;5027927;28;20044;-68
2024/04/04 09:06:33;;;;;;;6.38;1.80;;;;;;;24.65;100.00;100423.75;5026608;28;20042;-70
2024/04/04 09:08:58;;;;;;;3.55;1.40;;;;;;;24.36;100.00;100425.22;5026825;28;20025;-69
2024/04/04 09:11:28;;;;;;;5.43;1.50;;;;;;;24.91;100.00;100394.75;5025639;28;20415;-69
2024/04/04 09:14:09;;;;;;;6.65;1.50;;;;;;;24.75;100.00;100310.25;5026989;28;20033;-69
2024/04/04 09:16:59;;;;;;;3.65;1.40;;;;;;;25.09;100.00;100376.81;5008992;28;20099;-69
2024/04/04 09:19:24;;;;;;;4.55;1.20;;;;;;;25.52;100.00;100346.28;5026542;28;20112;-69
2024/04/04 09:21:50;;;;;;;6.15;1.70;;;;;;;24.89;100.00;100328.16;5027570;28;20128;-69
2024/04/04 09:24:16;;;;;;;6.35;1.27;;;;;;;24.83;100.00;100336.47;5009169;28;20083;-70
2024/04/04 09:26:43;;;;;;;13.25;1.90;;;;;;;23.85;100.00;100466.34;5009149;28;20037;-69
2024/04/04 09:29:09;;;;;;;2.58;1.60;;;;;;;25.24;100.00;100378.16;4665054;28;9999954;-69
2024/04/04 09:31:37;;;;;;;3.88;1.40;;;;;;;25.40;100.00;100368.16;5004557;28;20120;-69
2024/04/04 09:34:04;;;;;;;4.68;1.25;;;;;;;25.18;100.00;100274.50;5024131;28;20029;-70
2024/04/04 09:36:31;;;;;;;4.47;1.73;;;;;;;25.30;100.00;100249.22;5023787;28;20037;-69
2024/04/04 09:38:59;;;;;;;2.13;1.17;;;;;;;22.47;100.00;100561.03;5024857;28;20033;-70
2024/04/04 09:41:24;;;;;;;5.15;1.38;;;;;;;24.04;100.00;100321.16;5023057;28;21908;-69
2024/04/04 09:43:54;;;;;;;3.50;1.20;;;;;;;25.28;100.00;100339.66;5006961;28;20033;-69
2024/04/04 09:46:20;;;;;;;3.92;1.50;;;;;;;25.25;100.00;100327.75;5024415;28;20032;-69
2024/04/04 09:48:47;;;;;;;4.13;1.23;;;;;;;23.83;100.00;100404.13;5006065;28;20091;-70
2024/04/04 09:51:14;;;;;;;4.65;1.35;;;;;;;24.74;100.00;100309.41;5023158;28;20038;-69
2024/04/04 09:53:41;;;;;;;6.60;1.50;;;;;;;23.73;100.00;100429.13;5002552;28;20061;-71
2024/04/04 09:56:08;;;;;;;4.38;1.25;;;;;;;24.96;100.00;100349.31;5019985;28;20034;-69
2024/04/04 09:58:34;;;;;;;5.38;1.10;;;;;;;24.04;100.00;100433.72;5008201;28;20720;-69
2024/04/04 10:01:22;;;;;;;4.45;1.17;;;;;;;25.30;100.00;100211.00;5021847;28;20484;-70
2024/04/04 10:03:57;;;;;;;6.07;0.90;;;;;;;25.72;100.00;100263.84;5021878;28;20038;-70
2024/04/04 10:06:40;;;;;;;5.10;1.25;;;;;;;24.09;100.00;100345.81;5021276;28;20025;-70
2024/04/04 10:09:14;;;;;;;2.30;1.10;;;;;;;25.94;100.00;100289.69;5008229;28;20112;-71
2024/04/04 10:11:40;;;;;;;6.28;1.52;;;;;;;25.34;100.00;100355.59;5008177;28;20473;-69
2024/04/04 10:14:12;;;;;;;3.33;1.13;;;;;;;25.86;100.00;100284.31;5005797;28;20144;-70
2024/04/04 10:16:38;;;;;;;4.30;1.30;;;;;;;25.46;100.00;100305.13;5004859;28;20025;-69
2024/04/04 10:19:17;;;;;;;2.70;1.00;;;;;;;25.34;100.00;100271.44;5006489;28;20408;-70
2024/04/04 10:21:43;;;;;;;4.90;0.93;;;;;;;26.56;100.00;100229.41;5005440;28;20567;-68
2024/04/04 10:24:18;;;;;;;3.92;1.30;;;;;;;24.86;100.00;100354.41;5021448;28;20041;-68
2024/04/04 10:27:07;;;;;;;3.20;0.90;;;;;;;25.39;100.00;100218.03;5010631;28;20041;-68
2024/04/04 10:29:34;;;;;;;3.25;0.95;;;;;;;27.30;100.00;100155.44;5009398;28;20032;-68
2024/04/04 10:32:04;;;;;;;2.70;1.27;;;;;;;26.62;100.00;100200.97;5012226;28;20076;-71
2024/04/04 10:34:30;;;;;;;6.15;1.40;;;;;;;26.29;100.00;100218.81;5027122;28;20435;-71
2024/04/04 10:36:56;;;;;;;2.92;0.85;;;;;;;27.31;100.00;100162.34;5027821;28;20033;-70
2024/04/04 10:39:22;;;;;;;5.00;1.60;;;;;;;26.34;100.00;100148.84;5028257;28;20044;-70
2024/04/04 10:41:52;;;;;;;9.00;6.80;;;;;;;26.21;100.00;100249.97;5015706;28;20041;-71
2024/04/04 10:44:19;;;;;;;2.70;1.42;;;;;;;24.73;100.00;100317.34;5029801;28;20021;-71
2024/04/04 10:46:54;;;;;;;3.35;1.33;;;;;;;26.88;100.00;100192.59;5028127;28;20582;-69
2024/04/04 10:49:24;;;;;;;3.47;1.45;;;;;;;25.75;100.00;100151.56;5028033;28;20057;-70
2024/04/04 10:51:51;;;;;;;3.38;1.77;;;;;;;25.43;100.00;100315.78;5028146;28;20087;-69
2024/04/04 10:54:18;;;;;;;3.88;2.10;;;;;;;24.93;100.00;100340.81;5029329;28;20045;-71
2024/04/04 10:56:45;;;;;;;5.13;1.83;;;;;;;26.08;100.00;100226.78;5028796;28;20080;-69
2024/04/04 10:59:12;;;;;;;4.85;1.90;;;;;;;26.14;100.00;100157.63;5015731;28;20816;-70
2024/04/04 11:01:39;;;;;;;3.97;1.50;;;;;;;26.32;100.00;100120.31;5012237;28;20124;-70
2024/04/04 11:04:10;;;;;;;3.92;1.27;;;;;;;26.12;100.00;100236.00;5028339;28;20030;-68
2024/04/04 11:06:36;;;;;;;4.30;1.70;;;;;;;25.96;100.00;100209.59;5015830;28;20033;-68
2024/04/04 11:09:10;;;;;;;3.15;1.80;;;;;;;27.48;100.00;100112.88;5028259;28;20044;-68
2024/04/04 11:11:49;;;;;;;3.28;1.27;;;;;;;27.02;100.00;100145.16;5029171;28;20037;-69
2024/04/04 11:14:17;;;;;;;4.88;1.63;;;;;;;26.84;100.00;100194.63;5029548;28;20451;-68